Time;durP1;ratioP1;P1;durP2;ratioP2;P2;SDS_P1;SDS_P2;PMS_P1;PMS_P2;Temp;Humidity;BMP_temperature;BMP_pressure;BME280_temperature;BME280_humidity;BME280_pressure;Samples;Min_cycle;Max_cycle;Signal;HPM_P1;HPM_P2
2022/08/27 00:00:01;;;;;;;19.52;8.13;;;;;;;19.63;91.29;94348.41;5063297;28;20220;-79
2022/08/27 00:02:28;;;;;;;24.20;7.85;;;;;;;19.58;91.52;94345.81;5062069;28;20798;-79
2022/08/27 00:04:57;;;;;;;22.65;8.18;;;;;;;19.60;91.63;94351.59;5062705;28;20205;-79
2022/08/27 00:07:24;;;;;;;24.08;7.97;;;;;;;19.49;91.94;94346.72;5062211;28;20243;-79
2022/08/27 00:09:50;;;;;;;20.45;8.23;;;;;;;19.52;91.86;94348.78;5061144;28;20247;-79
2022/08/27 00:12:17;;;;;;;20.98;8.68;;;;;;;19.50;91.98;94343.03;5061704;28;20241;-79
2022/08/27 00:14:44;;;;;;;25.05;8.55;;;;;;;19.52;92.30;94343.53;5061400;28;20248;-79
2022/08/27 00:17:11;;;;;;;17.80;7.43;;;;;;;19.46;91.34;94339.38;5063227;28;20217;-79
2022/08/27 00:19:38;;;;;;;22.63;7.47;;;;;;;19.45;87.42;94346.47;5066428;28;20205;-79
2022/08/27 00:22:08;;;;;;;19.55;8.45;;;;;;;19.49;87.93;94342.22;5065919;28;20217;-80
2022/08/27 00:24:35;;;;;;;16.88;6.28;;;;;;;19.56;84.22;94341.91;5066071;28;20202;-79
2022/08/27 00:27:03;;;;;;;17.58;7.10;;;;;;;19.69;85.05;94341.22;5065902;28;20205;-80
2022/08/27 00:29:30;;;;;;;17.88;6.38;;;;;;;19.71;83.34;94339.09;5065212;28;20288;-79
2022/08/27 00:31:59;;;;;;;16.23;6.78;;;;;;;19.74;83.67;94333.22;5066443;28;20213;-81
2022/08/27 00:34:26;;;;;;;17.80;8.15;;;;;;;19.74;86.16;94330.59;5067523;28;20255;-80
2022/08/27 00:36:53;;;;;;;22.45;8.43;;;;;;;19.68;87.62;94335.16;5067249;28;20292;-78
2022/08/27 00:39:21;;;;;;;19.38;8.23;;;;;;;19.60;88.06;94338.41;5066153;28;20205;-78
2022/08/27 00:41:48;;;;;;;18.35;8.18;;;;;;;19.54;88.33;94331.63;5065508;28;20228;-79
2022/08/27 00:44:15;;;;;;;21.73;8.60;;;;;;;19.50;89.08;94335.13;5065628;28;20282;-78
2022/08/27 00:46:44;;;;;;;14.38;6.68;;;;;;;19.46;87.06;94334.88;5064375;28;20208;-78
2022/08/27 00:49:20;;;;;;;18.38;6.57;;;;;;;19.39;85.55;94338.94;5064872;28;20650;-79
2022/08/27 00:51:54;;;;;;;14.07;6.30;;;;;;;19.36;86.25;94347.38;5062248;28;20213;-78
2022/08/27 00:54:22;;;;;;;16.08;6.43;;;;;;;19.26;87.44;94343.75;5064805;28;20208;-78
2022/08/27 00:56:49;;;;;;;17.80;6.60;;;;;;;19.23;88.78;94339.06;5065959;28;20579;-79
2022/08/27 00:59:17;;;;;;;21.83;6.68;;;;;;;19.16;89.76;94335.19;5064794;28;20205;-79
2022/08/27 01:04:27;;;;;;;20.73;7.00;;;;;;;19.17;88.21;94334.91;5064042;28;21618;-80
2022/08/27 01:06:54;;;;;;;12.65;6.57;;;;;;;19.16;89.99;94343.84;5065809;28;20205;-79
2022/08/27 01:09:23;;;;;;;12.23;6.13;;;;;;;19.23;89.81;94333.78;5064560;28;20209;-79
2022/08/27 01:11:51;;;;;;;11.85;6.22;;;;;;;19.22;89.55;94340.09;5065541;28;20248;-79
2022/08/27 01:14:18;;;;;;;16.02;6.40;;;;;;;19.24;89.92;94337.22;5065977;28;20267;-79
2022/08/27 01:16:50;;;;;;;17.08;5.90;;;;;;;19.27;89.33;94339.28;5066668;28;20676;-78
2022/08/27 01:19:36;;;;;;;14.70;6.43;;;;;;;19.22;89.40;94328.78;5065053;28;20205;-79
2022/08/27 01:22:09;;;;;;;16.08;6.05;;;;;;;19.14;89.06;94324.91;5065154;28;20230;-79
2022/08/27 01:24:41;;;;;;;18.20;8.30;;;;;;;19.04;88.11;94329.50;5065046;28;20194;-79
2022/08/27 01:27:11;;;;;;;25.00;9.90;;;;;;;18.99;88.77;94327.69;5065927;28;20202;-79
2022/08/27 01:29:38;;;;;;;21.95;9.82;;;;;;;19.03;89.84;94335.81;5066004;28;20205;-80
2022/08/27 01:32:08;;;;;;;26.20;11.43;;;;;;;19.03;90.10;94336.63;5066181;28;20260;-80
2022/08/27 01:34:35;;;;;;;19.13;11.50;;;;;;;18.98;90.59;94327.97;5064407;28;20209;-78
2022/08/27 01:37:04;;;;;;;24.80;14.07;;;;;;;18.98;90.77;94326.13;5066002;28;20217;-79
2022/08/27 01:39:31;;;;;;;29.10;17.92;;;;;;;18.90;91.25;94329.38;5065177;28;20603;-77
2022/08/27 01:42:04;;;;;;;34.42;21.17;;;;;;;18.88;89.78;94336.75;5064925;28;20613;-78
2022/08/27 01:44:41;;;;;;;31.17;17.65;;;;;;;18.81;90.01;94338.94;5064535;28;20217;-79
2022/08/27 01:47:08;;;;;;;37.30;17.60;;;;;;;18.65;90.51;94338.25;5064736;28;20204;-79
2022/08/27 01:49:35;;;;;;;35.97;16.60;;;;;;;18.61;91.29;94342.47;5063756;28;20688;-80
2022/08/27 01:52:02;;;;;;;34.40;16.30;;;;;;;18.59;92.45;94341.97;5064656;28;20210;-80
2022/08/27 01:54:30;;;;;;;28.83;14.35;;;;;;;18.68;92.32;94345.59;5065847;28;21375;-80
2022/08/27 01:56:57;;;;;;;29.60;14.63;;;;;;;18.70;90.76;94346.09;5065921;28;20206;-80
2022/08/27 01:59:25;;;;;;;29.33;14.70;;;;;;;18.68;91.05;94342.97;5065898;28;20640;-79
2022/08/27 02:01:54;;;;;;;39.50;14.80;;;;;;;18.62;91.72;94340.63;5064906;28;20567;-79
2022/08/27 02:04:21;;;;;;;26.70;14.70;;;;;;;18.59;92.05;94346.47;5063468;28;20224;-80
2022/08/27 02:06:48;;;;;;;26.07;12.87;;;;;;;18.59;92.22;94349.88;5063898;28;20250;-80
2022/08/27 02:09:15;;;;;;;26.13;11.47;;;;;;;18.56;92.17;94342.53;5064102;28;20205;-80
2022/08/27 02:11:42;;;;;;;22.47;10.67;;;;;;;18.57;91.62;94336.22;5063787;28;20567;-81
2022/08/27 02:14:09;;;;;;;23.40;9.90;;;;;;;18.49;92.38;94343.91;5065574;28;20233;-79
2022/08/27 02:16:37;;;;;;;26.57;10.90;;;;;;;18.47;92.47;94341.50;5065298;28;20960;-79
2022/08/27 02:19:05;;;;;;;25.30;10.80;;;;;;;18.40;92.98;94346.31;5065659;28;20746;-79
2022/08/27 02:21:32;;;;;;;21.33;10.90;;;;;;;18.44;92.76;94349.19;5065394;28;20205;-80
2022/08/27 02:23:59;;;;;;;24.47;11.13;;;;;;;18.45;93.02;94348.91;5064857;28;20235;-79
2022/08/27 02:26:26;;;;;;;24.83;11.00;;;;;;;18.42;93.33;94354.72;5064393;28;20205;-78
2022/08/27 02:28:53;;;;;;;24.27;11.27;;;;;;;18.43;93.58;94350.25;5063763;28;20822;-78
2022/08/27 02:31:20;;;;;;;26.43;10.47;;;;;;;18.42;93.20;94344.19;5064149;28;20198;-77
2022/08/27 02:33:49;;;;;;;22.40;11.03;;;;;;;18.36;93.86;94344.47;5062091;28;20205;-77
2022/08/27 02:36:16;;;;;;;18.93;9.83;;;;;;;18.43;93.52;94353.66;5062857;28;20575;-77
2022/08/27 02:38:44;;;;;;;22.15;9.10;;;;;;;18.39;93.31;94354.47;5063355;28;20296;-78
2022/08/27 02:41:11;;;;;;;18.37;8.90;;;;;;;18.35;93.48;94359.50;5061926;28;20205;-78
2022/08/27 02:43:38;;;;;;;17.00;8.87;;;;;;;18.34;93.37;94360.56;5061663;28;20225;-78
2022/08/27 02:46:05;;;;;;;19.03;9.43;;;;;;;18.28;94.50;94366.13;5062498;28;20216;-79
2022/08/27 02:48:32;;;;;;;19.43;9.60;;;;;;;18.36;94.23;94371.59;5062221;28;20217;-79
2022/08/27 02:51:00;;;;;;;29.47;10.03;;;;;;;18.30;93.87;94356.09;5063181;28;20896;-79
2022/08/27 02:53:27;;;;;;;23.60;9.53;;;;;;;18.25;94.14;94364.81;5064275;28;20217;-80
2022/08/27 02:55:54;;;;;;;23.10;10.10;;;;;;;18.24;94.73;94368.50;5064582;28;20636;-80
2022/08/27 02:58:21;;;;;;;18.67;8.50;;;;;;;18.23;93.08;94364.31;5063034;28;20578;-79
2022/08/27 03:00:48;;;;;;;20.80;8.67;;;;;;;18.20;93.67;94367.47;5063661;28;20594;-79
2022/08/27 03:03:15;;;;;;;16.20;7.20;;;;;;;18.18;93.10;94366.19;5062357;28;20700;-79
2022/08/27 03:05:42;;;;;;;18.63;6.97;;;;;;;18.14;93.20;94379.09;5061253;28;20240;-79
2022/08/27 03:08:10;;;;;;;24.63;8.07;;;;;;;18.09;94.71;94376.50;5063389;28;20686;-79
2022/08/27 03:10:38;;;;;;;21.70;7.57;;;;;;;18.06;94.72;94377.81;5062634;28;20231;-79
2022/08/27 03:13:05;;;;;;;30.00;8.20;;;;;;;18.07;94.74;94374.13;5062874;28;20201;-79
2022/08/27 03:15:31;;;;;;;19.03;7.57;;;;;;;18.03;95.34;94373.09;5063056;28;20237;-80
2022/08/27 03:20:44;;;;;;;17.47;7.80;;;;;;;18.01;96.30;94380.47;5061260;28;20204;-79
2022/08/27 03:23:13;;;;;;;24.53;8.43;;;;;;;17.92;96.23;94368.94;5063193;28;20727;-80
2022/08/27 03:25:43;;;;;;;22.30;8.33;;;;;;;17.93;96.65;94381.03;5060814;28;20201;-79
2022/08/27 03:28:13;;;;;;;18.70;8.27;;;;;;;17.91;96.42;94369.22;5061528;28;20202;-80
2022/08/27 03:30:41;;;;;;;16.00;8.27;;;;;;;17.97;96.19;94386.53;5059837;28;20220;-79
2022/08/27 03:33:10;;;;;;;18.33;8.23;;;;;;;17.90;96.89;94380.78;5065129;28;20209;-79
2022/08/27 03:35:37;;;;;;;12.77;7.30;;;;;;;17.91;97.04;94393.66;5064135;28;20201;-79
2022/08/27 03:38:03;;;;;;;17.80;7.90;;;;;;;17.90;96.99;94386.03;5064202;28;20232;-80
2022/08/27 03:40:32;;;;;;;24.90;8.57;;;;;;;17.97;96.24;94397.84;5062309;28;20579;-80
2022/08/27 03:42:58;;;;;;;21.33;7.47;;;;;;;17.96;96.83;94388.38;5062686;28;20233;-79
2022/08/27 03:45:26;;;;;;;23.17;8.10;;;;;;;17.95;96.79;94392.06;5062547;28;20208;-80
2022/08/27 03:47:53;;;;;;;18.77;8.13;;;;;;;17.90;96.49;94391.28;5063149;28;20208;-80
2022/08/27 03:50:20;;;;;;;21.87;8.70;;;;;;;17.90;96.44;94388.66;5064773;28;20291;-80
2022/08/27 03:52:47;;;;;;;27.80;8.20;;;;;;;17.87;97.49;94395.25;5066360;28;20740;-79
2022/08/27 03:55:15;;;;;;;18.57;8.27;;;;;;;17.78;98.12;94391.59;5066583;28;20212;-79
2022/08/27 03:57:43;;;;;;;14.37;8.20;;;;;;;17.77;98.08;94387.41;5066393;28;20197;-78
2022/08/27 04:00:12;;;;;;;24.97;9.37;;;;;;;17.69;98.49;94389.81;5065906;28;20239;-80
2022/08/27 04:02:39;;;;;;;17.23;8.53;;;;;;;17.83;98.65;94396.84;5064788;28;20593;-80
2022/08/27 04:05:07;;;;;;;21.20;8.20;;;;;;;17.82;97.19;94399.75;5067850;28;20212;-80
2022/08/27 04:07:34;;;;;;;23.07;9.23;;;;;;;17.77;96.99;94408.44;5067185;28;20209;-80
2022/08/27 04:10:01;;;;;;;18.80;8.73;;;;;;;17.79;96.71;94406.31;5067438;28;20213;-80
2022/08/27 04:12:28;;;;;;;26.37;8.87;;;;;;;17.79;97.13;94403.69;5065839;28;20216;-78
2022/08/27 04:14:56;;;;;;;22.37;8.90;;;;;;;17.78;97.82;94409.22;5065077;28;20237;-79
2022/08/27 04:17:23;;;;;;;56.97;36.03;;;;;;;17.74;98.03;94403.72;5065894;28;20212;-79
2022/08/27 04:19:51;;;;;;;43.00;25.00;;;;;;;17.76;97.63;94395.56;5066825;28;20208;-79
2022/08/27 04:22:19;;;;;;;60.83;36.83;;;;;;;17.77;97.27;94400.56;5066530;28;20301;-79
2022/08/27 04:24:46;;;;;;;48.47;29.30;;;;;;;17.83;97.15;94412.63;5066999;28;20229;-80
2022/08/27 04:27:13;;;;;;;48.90;28.03;;;;;;;17.75;97.34;94407.91;5067325;28;20687;-80
2022/08/27 04:29:41;;;;;;;40.27;28.13;;;;;;;17.72;96.82;94413.69;5067491;28;20308;-80
2022/08/27 04:32:09;;;;;;;37.03;16.43;;;;;;;17.74;97.05;94413.44;5066511;28;20228;-79
2022/08/27 04:34:36;;;;;;;24.20;11.80;;;;;;;17.76;97.57;94409.50;5066637;28;20221;-79
2022/08/27 04:37:04;;;;;;;27.77;12.07;;;;;;;17.70;98.01;94415.81;5067209;28;20664;-79
2022/08/27 04:39:31;;;;;;;32.63;13.60;;;;;;;17.79;98.68;94408.94;5067763;28;20211;-80
2022/08/27 04:42:00;;;;;;;29.17;14.70;;;;;;;17.79;98.30;94413.41;5067447;28;20197;-80
2022/08/27 04:44:29;;;;;;;29.97;14.03;;;;;;;17.80;97.96;94412.38;5066033;28;20217;-79
2022/08/27 04:46:57;;;;;;;36.13;17.73;;;;;;;17.87;97.92;94416.28;5066213;28;20204;-80
2022/08/27 04:49:25;;;;;;;37.00;16.97;;;;;;;17.87;97.16;94411.03;5065068;28;20205;-79
2022/08/27 04:51:52;;;;;;;33.93;14.83;;;;;;;17.99;96.23;94408.88;5063971;28;20216;-79
2022/08/27 04:54:19;;;;;;;30.27;16.20;;;;;;;18.03;96.21;94417.81;5065243;28;20205;-80
2022/08/27 04:56:46;;;;;;;36.17;16.07;;;;;;;18.11;96.29;94413.81;5064029;28;20198;-79
2022/08/27 04:59:14;;;;;;;31.63;16.17;;;;;;;18.20;95.60;94417.47;5065273;28;20209;-80
2022/08/27 05:01:42;;;;;;;33.10;15.95;;;;;;;18.23;95.86;94430.09;5062986;28;20247;-80
2022/08/27 05:04:10;;;;;;;36.97;16.27;;;;;;;18.31;96.52;94426.88;5062584;28;20294;-79
2022/08/27 05:06:39;;;;;;;39.87;20.23;;;;;;;18.46;95.74;94426.81;5064625;28;20204;-79
2022/08/27 05:09:06;;;;;;;39.83;23.90;;;;;;;18.46;95.30;94429.44;5065774;28;20723;-78
2022/08/27 05:11:34;;;;;;;36.77;21.53;;;;;;;18.50;94.98;94424.44;5066316;28;20211;-79
2022/08/27 05:14:03;;;;;;;35.27;18.23;;;;;;;18.48;94.59;94427.34;5065477;28;20244;-79
2022/08/27 05:16:30;;;;;;;24.80;15.40;;;;;;;18.51;94.51;94432.06;5064982;28;20233;-78
2022/08/27 05:18:58;;;;;;;24.83;12.70;;;;;;;18.54;94.36;94433.38;5064581;28;20204;-79
2022/08/27 05:21:29;;;;;;;20.70;10.30;;;;;;;18.57;93.99;94425.72;5063565;28;20574;-82
2022/08/27 05:23:59;;;;;;;18.90;9.53;;;;;;;18.57;93.56;94430.97;5065920;28;20210;-82
2022/08/27 05:26:26;;;;;;;30.70;9.00;;;;;;;18.51;93.86;94418.13;5064954;28;20217;-82
2022/08/27 05:28:53;;;;;;;17.33;8.13;;;;;;;18.61;93.53;94433.88;5065171;28;20212;-79
2022/08/27 05:31:21;;;;;;;22.13;8.18;;;;;;;18.63;93.07;94435.16;5065505;28;20206;-78
2022/08/27 05:33:48;;;;;;;21.73;7.93;;;;;;;18.65;93.30;94438.28;5065351;28;20202;-79
2022/08/27 05:36:18;;;;;;;20.88;7.85;;;;;;;18.75;92.81;94436.66;5064810;28;20209;-79
2022/08/27 05:38:45;;;;;;;16.42;7.43;;;;;;;18.77;92.33;94434.53;5064188;28;20209;-79
2022/08/27 05:41:16;;;;;;;22.50;8.70;;;;;;;18.79;92.19;94435.06;5065234;28;20220;-79
2022/08/27 05:43:44;;;;;;;19.85;7.93;;;;;;;18.87;91.73;94435.28;5064912;28;20213;-79
2022/08/27 05:46:14;;;;;;;16.43;7.80;;;;;;;18.81;91.96;94439.00;5064918;28;20202;-79
2022/08/27 05:48:42;;;;;;;21.30;8.32;;;;;;;18.78;92.80;94434.28;5064320;28;20209;-80
2022/08/27 05:51:12;;;;;;;19.40;8.00;;;;;;;18.82;92.61;94443.19;5064506;28;20208;-79
2022/08/27 05:53:39;;;;;;;22.27;8.88;;;;;;;18.76;89.11;94439.00;5063976;28;20209;-78
2022/08/27 05:56:14;;;;;;;21.05;8.65;;;;;;;18.75;89.08;94442.72;5064811;28;20201;-78
2022/08/27 06:01:25;;;;;;;22.98;8.73;;;;;;;19.28;85.59;94443.63;5063128;28;20208;-87
2022/08/27 06:03:53;;;;;;;17.60;7.70;;;;;;;19.41;85.52;94444.88;5063497;28;20229;-81
2022/08/27 06:06:22;;;;;;;24.42;8.80;;;;;;;19.49;85.00;94441.63;5065392;28;20285;-78
2022/08/27 06:08:49;;;;;;;21.48;8.07;;;;;;;19.52;84.45;94448.97;5064980;28;20212;-79
2022/08/27 06:11:18;;;;;;;20.55;7.78;;;;;;;19.56;84.16;94447.38;5064537;28;20678;-79
2022/08/27 06:13:46;;;;;;;17.75;7.70;;;;;;;19.51;83.58;94448.19;5063447;28;20198;-80
2022/08/27 06:16:15;;;;;;;18.85;7.53;;;;;;;19.48;83.85;94454.00;5062906;28;20319;-82
2022/08/27 06:18:44;;;;;;;21.75;7.97;;;;;;;19.43;82.49;94438.25;5065832;28;20760;-85
2022/08/27 06:21:11;;;;;;;17.27;7.68;;;;;;;19.49;82.52;94449.53;5065012;28;20209;-84
2022/08/27 06:23:39;;;;;;;19.20;8.18;;;;;;;19.53;82.35;94456.63;5064664;28;20221;-76
2022/08/27 06:26:08;;;;;;;27.13;7.60;;;;;;;19.56;82.34;94448.16;5064516;28;20201;-80
2022/08/27 06:28:39;;;;;;;17.73;7.78;;;;;;;19.62;82.23;94446.25;5062873;28;20229;-80
2022/08/27 06:31:09;;;;;;;23.63;7.93;;;;;;;19.69;81.21;94447.50;5062862;28;20284;-82
2022/08/27 06:33:36;;;;;;;17.83;7.40;;;;;;;19.71;81.60;94452.50;5062997;28;20255;-75
2022/08/27 06:36:05;;;;;;;23.08;7.40;;;;;;;19.72;81.58;94456.69;5061748;28;20216;-77
2022/08/27 06:38:33;;;;;;;19.58;7.30;;;;;;;19.72;81.52;94446.94;5061649;28;20209;-77
2022/08/27 06:41:00;;;;;;;18.33;7.20;;;;;;;20.08;81.48;94454.47;5062310;28;20209;-82
2022/08/27 06:43:27;;;;;;;22.45;7.60;;;;;;;20.29;79.02;94447.88;5066223;28;20197;-79
2022/08/27 06:45:55;;;;;;;16.67;7.00;;;;;;;20.51;79.31;94453.44;5067661;28;20934;-84
2022/08/27 06:48:22;;;;;;;20.25;7.45;;;;;;;20.56;77.93;94448.06;5066496;28;20205;-77
2022/08/27 06:50:49;;;;;;;22.48;7.00;;;;;;;20.54;76.06;94450.22;5061435;28;20205;-76
2022/08/27 06:53:16;;;;;;;17.13;6.70;;;;;;;20.53;76.49;94439.94;5065438;28;20209;-87
2022/08/27 06:55:45;;;;;;;17.00;6.45;;;;;;;20.55;76.47;94443.09;5066843;28;20212;-79
2022/08/27 06:58:13;;;;;;;16.30;7.15;;;;;;;20.54;76.56;94446.78;5064700;28;20205;-83
2022/08/27 07:00:41;;;;;;;19.13;7.20;;;;;;;20.57;76.39;94446.22;5064820;28;20205;-84
2022/08/27 07:03:09;;;;;;;19.50;7.25;;;;;;;20.62;76.29;94444.31;5063875;28;20292;-81
2022/08/27 07:05:39;;;;;;;18.48;6.82;;;;;;;20.74;75.71;94441.22;5063592;28;20221;-79
2022/08/27 07:08:08;;;;;;;21.15;6.60;;;;;;;20.75;75.55;94446.22;5058757;28;20193;-79
2022/08/27 07:10:35;;;;;;;11.60;6.60;;;;;;;20.75;75.06;94448.84;5060234;28;20235;-79
2022/08/27 07:13:02;;;;;;;18.90;6.18;;;;;;;21.09;75.72;94443.38;5063943;28;20233;-79
2022/08/27 07:15:40;;;;;;;21.25;6.35;;;;;;;21.32;74.55;94442.47;5063368;28;20290;-80
2022/08/27 07:18:08;;;;;;;13.82;5.93;;;;;;;21.52;74.80;94435.28;5045157;28;20262;-82
2022/08/27 07:20:35;;;;;;;19.73;5.95;;;;;;;21.66;73.58;94441.38;5062574;28;20202;-80
2022/08/27 07:23:02;;;;;;;21.88;5.85;;;;;;;21.68;72.49;94445.28;5067175;28;20225;-79
2022/08/27 07:25:31;;;;;;;17.58;6.18;;;;;;;21.69;71.58;94438.94;5067738;28;20232;-79
2022/08/27 07:27:58;;;;;;;18.90;6.57;;;;;;;21.71;71.12;94435.97;5066952;28;20216;-78
2022/08/27 07:30:27;;;;;;;17.02;6.43;;;;;;;21.71;71.06;94442.06;5068094;28;20197;-78
2022/08/27 07:32:54;;;;;;;15.30;5.82;;;;;;;21.75;70.61;94451.00;5068593;28;20208;-79
2022/08/27 07:35:22;;;;;;;20.88;6.53;;;;;;;21.76;70.94;94452.53;5067495;28;20197;-79
2022/08/27 07:37:49;;;;;;;16.52;6.60;;;;;;;21.79;71.11;94449.31;5067041;28;20213;-79
2022/08/27 07:40:17;;;;;;;28.35;6.80;;;;;;;21.82;71.15;94453.22;5067594;28;20212;-79
2022/08/27 07:45:29;;;;;;;19.23;6.28;;;;;;;21.97;70.85;94456.44;5067463;28;20227;-79
2022/08/27 07:47:56;;;;;;;17.55;6.18;;;;;;;22.02;70.49;94463.47;5067721;28;20213;-80
2022/08/27 07:50:24;;;;;;;16.05;5.97;;;;;;;22.05;69.42;94455.75;5067373;28;20205;-79
2022/08/27 07:52:52;;;;;;;15.95;6.10;;;;;;;22.17;69.23;94468.50;5067640;28;20204;-79
2022/08/27 07:55:19;;;;;;;23.45;7.18;;;;;;;22.17;68.91;94455.25;5066651;28;20197;-79
2022/08/27 07:57:47;;;;;;;15.27;6.93;;;;;;;22.25;69.06;94457.19;5065414;28;20196;-79
2022/08/27 08:00:14;;;;;;;18.30;5.88;;;;;;;22.37;67.96;94460.13;5066601;28;20232;-78
2022/08/27 08:02:43;;;;;;;18.83;6.82;;;;;;;22.77;65.37;94468.38;5066667;28;20208;-79
2022/08/27 08:05:11;;;;;;;19.90;6.20;;;;;;;22.99;65.78;94453.28;5067666;28;20229;-80
2022/08/27 08:07:39;;;;;;;19.45;6.43;;;;;;;23.23;64.25;94468.13;5068408;28;20194;-80
2022/08/27 08:10:07;;;;;;;16.38;5.72;;;;;;;23.27;65.11;94455.81;5067632;28;20197;-79
2022/08/27 08:12:35;;;;;;;19.02;6.47;;;;;;;23.32;63.71;94451.16;5067480;28;20205;-79
2022/08/27 08:15:03;;;;;;;16.50;5.38;;;;;;;23.39;63.43;94448.13;5067169;28;20315;-79
2022/08/27 08:17:32;;;;;;;19.90;6.35;;;;;;;23.46;62.92;94448.50;5066684;28;20598;-79
2022/08/27 08:19:58;;;;;;;20.17;6.53;;;;;;;23.55;62.33;94441.38;5066077;28;20248;-79
2022/08/27 08:22:26;;;;;;;18.67;5.75;;;;;;;23.62;61.48;94452.31;5066832;28;20664;-79
2022/08/27 08:24:54;;;;;;;18.23;5.82;;;;;;;23.67;60.02;94445.00;5066798;28;20226;-79
2022/08/27 08:27:22;;;;;;;13.70;5.80;;;;;;;23.73;60.33;94446.44;5065504;28;20205;-80
2022/08/27 08:29:50;;;;;;;19.90;5.93;;;;;;;23.76;60.25;94442.41;5066470;28;20213;-80
2022/08/27 08:32:20;;;;;;;15.57;5.70;;;;;;;23.75;60.08;94432.09;5066630;28;20733;-79
2022/08/27 08:34:47;;;;;;;21.27;6.20;;;;;;;23.82;60.22;94432.44;5065523;28;20213;-79
2022/08/27 08:37:14;;;;;;;14.77;5.30;;;;;;;23.83;59.82;94442.75;5065821;28;20209;-78
2022/08/27 08:39:41;;;;;;;9.30;4.35;;;;;;;23.91;61.14;94436.69;5069211;28;20213;-79
2022/08/27 08:42:26;;;;;;;11.60;4.57;;;;;;;24.02;61.98;94434.53;5071086;28;20205;-79
2022/08/27 08:44:55;;;;;;;13.45;5.32;;;;;;;24.13;61.53;94446.47;5070686;28;20222;-78
2022/08/27 08:47:25;;;;;;;10.75;4.63;;;;;;;24.19;62.13;94438.06;5071331;28;20201;-79
2022/08/27 08:49:56;;;;;;;18.90;5.55;;;;;;;24.35;59.82;94438.44;5068495;28;20201;-78
2022/08/27 08:52:30;;;;;;;25.45;5.70;;;;;;;24.44;58.47;94435.81;5067923;28;20213;-79
2022/08/27 08:55:07;;;;;;;17.45;5.80;;;;;;;24.60;57.44;94440.38;5070062;28;20251;-79
2022/08/27 08:57:39;;;;;;;12.50;5.38;;;;;;;24.73;56.23;94444.75;5071042;28;20251;-78
2022/08/27 09:00:11;;;;;;;19.08;5.22;;;;;;;24.79;55.17;94438.19;5070590;28;20258;-78
2022/08/27 09:02:38;;;;;;;14.68;5.70;;;;;;;24.95;55.03;94440.41;5069447;28;20205;-79
2022/08/27 09:05:08;;;;;;;17.55;5.50;;;;;;;25.04;53.85;94434.00;5069347;28;20232;-78
2022/08/27 09:07:43;;;;;;;9.88;4.75;;;;;;;25.21;52.51;94434.00;5070401;28;20198;-78
2022/08/27 09:10:18;;;;;;;12.20;5.15;;;;;;;25.52;50.48;94428.50;5067857;28;20683;-79
2022/08/27 09:12:46;;;;;;;20.85;5.40;;;;;;;25.72;50.40;94433.13;5070063;28;20291;-79
2022/08/27 09:15:17;;;;;;;13.05;4.45;;;;;;;25.89;50.42;94422.44;5068800;28;20664;-79
2022/08/27 09:17:46;;;;;;;17.02;5.38;;;;;;;26.10;50.39;94438.50;5068140;28;20217;-79
2022/08/27 09:20:17;;;;;;;19.08;4.45;;;;;;;26.22;50.04;94443.19;5067160;28;20216;-78
2022/08/27 09:22:53;;;;;;;10.25;3.88;;;;;;;26.37;48.30;94440.75;5067452;28;20198;-78
2022/08/27 09:25:25;;;;;;;15.75;4.60;;;;;;;26.56;47.33;94436.88;5069164;28;20294;-79
2022/08/27 09:27:58;;;;;;;13.32;4.50;;;;;;;26.71;46.30;94433.63;5069570;28;20209;-79
2022/08/27 09:30:28;;;;;;;16.90;4.80;;;;;;;26.90;45.12;94437.44;5069129;28;20259;-79
2022/08/27 09:32:57;;;;;;;12.95;4.72;;;;;;;27.05;44.04;94434.19;5069443;28;20235;-79
2022/08/27 09:35:27;;;;;;;16.77;4.40;;;;;;;27.13;45.41;94437.13;5068476;28;20569;-78
2022/08/27 09:37:56;;;;;;;15.90;4.30;;;;;;;27.29;44.90;94432.75;5067456;28;20209;-78
2022/08/27 09:40:30;;;;;;;18.23;4.30;;;;;;;27.51;43.38;94435.06;5068194;28;20213;-79
2022/08/27 09:43:07;;;;;;;14.90;4.20;;;;;;;27.72;41.19;94433.13;5066368;28;20203;-78
2022/08/27 09:45:35;;;;;;;13.63;3.80;;;;;;;27.74;40.67;94417.53;5065183;28;20318;-78
2022/08/27 09:48:07;;;;;;;14.52;4.53;;;;;;;28.01;41.24;94427.63;5068749;28;20205;-78
2022/08/27 09:50:39;;;;;;;17.30;5.30;;;;;;;28.24;41.11;94429.88;5068138;28;21026;-79
2022/08/27 09:53:18;;;;;;;15.93;4.35;;;;;;;28.39;40.26;94432.66;5067807;28;20209;-78
2022/08/27 09:55:48;;;;;;;14.32;4.97;;;;;;;28.62;39.63;94435.66;5065868;28;20559;-78
2022/08/27 09:58:20;;;;;;;12.50;4.05;;;;;;;28.77;38.68;94428.88;5069114;28;20270;-78
2022/08/27 10:00:49;;;;;;;15.93;3.83;;;;;;;28.98;38.47;94438.28;5068924;28;20221;-78
2022/08/27 10:03:15;;;;;;;14.70;4.30;;;;;;;29.27;37.44;94438.00;5069176;28;20220;-79
2022/08/27 10:05:50;;;;;;;12.93;4.63;;;;;;;29.55;35.52;94443.34;5069436;28;20225;-79
2022/08/27 10:08:24;;;;;;;12.38;3.50;;;;;;;29.73;34.92;94431.19;5069146;28;21197;-79
2022/08/27 10:10:55;;;;;;;13.82;3.97;;;;;;;29.87;34.21;94425.44;5068852;28;20907;-79
2022/08/27 10:13:28;;;;;;;13.45;3.83;;;;;;;30.08;33.29;94431.34;5066348;28;20357;-78
2022/08/27 10:16:30;;;;;;;17.45;4.50;;;;;;;30.18;34.17;94424.69;5065813;28;20813;-78
2022/08/27 10:19:11;;;;;;;26.85;4.05;;;;;;;30.30;33.19;94427.28;5064380;28;21023;-77
2022/08/27 10:21:50;;;;;;;14.57;3.88;;;;;;;30.43;33.80;94428.75;5062110;28;20962;-77
2022/08/27 10:24:27;;;;;;;17.85;4.07;;;;;;;30.66;34.07;94434.25;5065502;28;20201;-78
2022/08/27 10:27:06;;;;;;;22.30;4.70;;;;;;;30.80;34.16;94438.03;5064510;28;20232;-78
2022/08/27 10:29:43;;;;;;;17.95;3.97;;;;;;;30.92;32.47;94429.06;5064517;28;20198;-78
2022/08/27 10:32:27;;;;;;;14.25;3.90;;;;;;;31.09;35.03;94434.06;5064533;28;20208;-78
2022/08/27 10:35:07;;;;;;;8.63;3.50;;;;;;;31.08;33.10;94437.13;5061610;28;20197;-78
2022/08/27 10:37:44;;;;;;;16.33;3.85;;;;;;;31.36;33.68;94435.78;5064150;28;20672;-79
2022/08/27 10:40:18;;;;;;;23.55;3.65;;;;;;;31.55;33.65;94435.00;5062468;28;20202;-78
2022/08/27 10:42:51;;;;;;;13.80;3.88;;;;;;;31.69;32.41;94443.31;5064335;28;20205;-79
2022/08/27 10:45:32;;;;;;;16.00;4.50;;;;;;;31.98;32.34;94440.00;5061021;28;20794;-80
2022/08/27 10:48:09;;;;;;;8.00;3.90;;;;;;;32.13;32.92;94438.38;5061884;28;21044;-79
2022/08/27 10:50:46;;;;;;;17.70;4.47;;;;;;;32.20;32.40;94443.09;5063280;28;20201;-79
2022/08/27 10:53:25;;;;;;;19.90;4.80;;;;;;;32.26;33.11;94438.97;5061588;28;20236;-79
2022/08/27 10:56:00;;;;;;;15.13;4.72;;;;;;;32.35;31.27;94437.56;5062219;28;20870;-79
2022/08/27 10:58:40;;;;;;;16.02;4.60;;;;;;;32.21;29.21;94437.34;5063106;28;20262;-79
2022/08/27 11:01:20;;;;;;;12.38;4.45;;;;;;;32.33;31.02;94425.63;5063561;28;20301;-79
2022/08/27 11:03:53;;;;;;;19.02;5.28;;;;;;;32.31;29.82;94438.66;5062436;28;20288;-79
2022/08/27 11:06:26;;;;;;;13.73;4.60;;;;;;;32.53;30.42;94438.63;5062649;28;20237;-80
2022/08/27 11:08:59;;;;;;;13.75;4.80;;;;;;;32.65;29.79;94426.13;5036151;28;20205;-80
2022/08/27 11:11:34;;;;;;;14.32;4.60;;;;;;;32.92;27.90;94433.84;5062042;28;20198;-83
2022/08/27 11:14:06;;;;;;;10.20;4.55;;;;;;;33.20;27.46;94438.06;5062496;28;20298;-79
2022/08/27 11:16:39;;;;;;;16.05;4.60;;;;;;;33.40;28.26;94432.16;5061603;28;20205;-77
2022/08/27 11:19:14;;;;;;;15.10;4.50;;;;;;;33.56;28.40;94435.44;5060857;28;20193;-82
2022/08/27 11:21:46;;;;;;;9.95;4.63;;;;;;;33.60;27.20;94430.88;5060248;28;20581;-78
2022/08/27 11:24:25;;;;;;;14.02;5.35;;;;;;;33.69;25.01;94430.59;5059661;28;20790;-79
2022/08/27 11:26:59;;;;;;;19.08;5.32;;;;;;;33.85;24.81;94433.06;5061199;28;20703;-79
2022/08/27 11:29:36;;;;;;;12.82;5.35;;;;;;;34.14;23.38;94429.50;5060561;28;20203;-78
2022/08/27 11:32:16;;;;;;;14.25;5.60;;;;;;;34.35;23.77;94428.88;5066860;28;20209;-78
2022/08/27 11:34:51;;;;;;;12.98;5.15;;;;;;;34.49;24.17;94423.63;5061550;28;20237;-78
2022/08/27 11:37:39;;;;;;;14.40;4.85;;;;;;;34.68;23.64;94421.47;5043592;28;21487;-80
2022/08/27 11:40:34;;;;;;;11.13;4.50;;;;;;;34.86;24.19;94416.16;5062205;28;20201;-79
2022/08/27 11:43:04;;;;;;;16.63;5.18;;;;;;;34.96;23.22;94425.47;5060563;28;20205;-80
2022/08/27 11:45:37;;;;;;;11.48;4.57;;;;;;;34.88;23.04;94415.78;5061458;28;20344;-79